Terminal Aerodrome Forecast
Issued by NWS

Home | Current Version | Previous Version | Text Only | Print | Product List | Glossary On
Versions: 1 2 3 4 5 6 7 8 9 10 11 12 13 14 15 16
737
FTUS44 KLIX 281025 AAC
TAFGPT
TAF AMD
KGPT 281025Z 2810/0106 15010KT 5SM BR OVC004
      TEMPO 2810/2813 1/4SM FG OVC002
     FM281500 17009KT P6SM BKN015
     FM281700 16010KT P6SM BKN040=

USA.gov is the U.S. government's official web portal to all federal, state and local government web resources and services.